createdAt,value
2022-08-17T00:01:32.050Z,23.40
2022-08-17T00:04:19.409Z,23.33
2022-08-17T00:06:49.447Z,23.36
2022-08-17T00:09:18.904Z,23.42
2022-08-17T00:12:41.308Z,23.43
2022-08-17T00:14:35.244Z,23.40
2022-08-17T00:17:03.911Z,23.39
2022-08-17T00:19:32.464Z,23.34
2022-08-17T00:22:31.974Z,23.40
2022-08-17T00:24:47.330Z,23.43
2022-08-17T00:27:13.831Z,23.46
2022-08-17T00:29:40.593Z,23.45
2022-08-17T00:33:13.692Z,23.45
2022-08-17T00:34:53.842Z,23.44
2022-08-17T00:37:20.547Z,23.31
2022-08-17T00:39:47.243Z,23.27
2022-08-17T00:42:15.726Z,23.25
2022-08-17T00:44:42.301Z,23.20
2022-08-17T00:47:08.955Z,23.15
2022-08-17T00:49:35.502Z,23.06
2022-08-17T00:52:10.673Z,22.96
2022-08-17T00:54:42.317Z,22.97
2022-08-17T00:57:15.110Z,23.01
2022-08-17T00:59:47.160Z,22.95
2022-08-17T01:02:29.647Z,23.06
2022-08-17T01:05:01.088Z,23.03
2022-08-17T01:07:27.747Z,23.02
2022-08-17T01:09:54.812Z,23.04
2022-08-17T01:12:21.722Z,23.08
2022-08-17T01:14:48.582Z,22.88
2022-08-17T01:17:15.273Z,23.02
2022-08-17T01:19:42.718Z,23.03
2022-08-17T01:22:09.192Z,23.04
2022-08-17T01:24:38.904Z,22.98
2022-08-17T01:27:10.665Z,22.97
2022-08-17T01:29:41.183Z,22.87
2022-08-17T01:32:08.371Z,22.93
2022-08-17T01:34:42.416Z,22.98
2022-08-17T01:37:10.623Z,22.79
2022-08-17T01:39:49.175Z,22.88
2022-08-17T01:42:31.734Z,22.77
2022-08-17T01:45:04.395Z,22.76
2022-08-17T01:47:31.140Z,22.71
2022-08-17T01:49:57.926Z,22.74
2022-08-17T01:52:24.602Z,22.83
2022-08-17T01:54:51.380Z,22.81
2022-08-17T01:57:18.463Z,22.90
2022-08-17T01:59:44.993Z,22.85
2022-08-17T02:02:11.589Z,22.72
2022-08-17T02:04:56.837Z,22.79
2022-08-17T02:07:26.131Z,22.82
2022-08-17T02:09:53.646Z,22.89
2022-08-17T02:12:38.768Z,22.80
2022-08-17T02:15:07.641Z,22.78
2022-08-17T02:17:35.239Z,22.69
2022-08-17T02:20:01.845Z,22.61
2022-08-17T02:22:28.847Z,22.63
2022-08-17T02:25:01.114Z,22.64
2022-08-17T02:27:28.424Z,22.62
2022-08-17T02:29:54.927Z,22.68
2022-08-17T02:32:27.575Z,22.74
2022-08-17T02:34:56.514Z,22.54
2022-08-17T02:37:23.364Z,22.65
2022-08-17T02:39:50.002Z,22.65
2022-08-17T02:42:16.536Z,22.59
2022-08-17T02:44:43.554Z,22.60
2022-08-17T02:47:11.634Z,22.49
2022-08-17T02:49:38.338Z,22.37
2022-08-17T02:52:07.241Z,22.26
2022-08-17T02:54:40.354Z,22.23
2022-08-17T02:57:11.793Z,22.18
2022-08-17T02:59:39.806Z,22.27
2022-08-17T03:02:08.356Z,22.21
2022-08-17T03:04:35.645Z,22.28
2022-08-17T03:07:03.537Z,22.37
2022-08-17T03:09:30.049Z,22.31
2022-08-17T03:12:08.449Z,22.42
2022-08-17T03:14:41.316Z,22.40
2022-08-17T03:17:10.975Z,22.42
2022-08-17T03:19:43.483Z,22.33
2022-08-17T03:22:36.556Z,22.24
2022-08-17T03:24:57.706Z,22.09
2022-08-17T03:27:24.286Z,22.18
2022-08-17T03:29:50.939Z,22.14
2022-08-17T03:32:17.629Z,21.98
2022-08-17T03:34:44.220Z,22.07
2022-08-17T03:37:10.726Z,22.09
2022-08-17T03:39:37.565Z,22.03
2022-08-17T03:42:09.085Z,22.09
2022-08-17T03:44:57.888Z,22.10
2022-08-17T03:47:50.694Z,22.12
2022-08-17T03:50:37.401Z,22.12
2022-08-17T03:53:26.891Z,22.15
2022-08-17T03:56:11.953Z,22.17
2022-08-17T03:58:38.779Z,22.15
2022-08-17T04:01:06.861Z,22.14
2022-08-17T04:03:33.793Z,22.09
2022-08-17T04:06:02.183Z,21.94
2022-08-17T04:08:29.587Z,22.06
2022-08-17T04:10:57.426Z,21.99
2022-08-17T04:13:24.766Z,21.98
2022-08-17T04:15:52.733Z,21.90
2022-08-17T04:18:20.163Z,21.95
2022-08-17T04:20:47.163Z,21.82
2022-08-17T04:23:17.029Z,21.87
2022-08-17T04:25:48.285Z,21.86
2022-08-17T04:28:16.568Z,21.79
2022-08-17T04:30:45.139Z,21.80
2022-08-17T04:33:21.034Z,21.83
2022-08-17T04:35:50.357Z,21.77
2022-08-17T04:38:20.781Z,21.77
2022-08-17T04:41:07.379Z,21.83
2022-08-17T04:43:35.014Z,21.78
2022-08-17T04:46:04.803Z,21.79
2022-08-17T04:48:41.753Z,21.76
2022-08-17T04:51:16.222Z,21.80
2022-08-17T04:53:45.315Z,21.78
2022-08-17T04:56:20.577Z,21.79
2022-08-17T04:58:50.284Z,21.81
2022-08-17T05:01:23.381Z,21.89
2022-08-17T05:03:56.385Z,21.87
2022-08-17T05:06:23.402Z,21.69
2022-08-17T05:08:49.962Z,21.66
2022-08-17T05:11:16.842Z,21.73
2022-08-17T05:13:43.573Z,21.73
2022-08-17T05:16:10.453Z,21.70
2022-08-17T05:18:39.918Z,21.66
2022-08-17T05:21:07.335Z,21.79
2022-08-17T05:23:43.060Z,21.76
2022-08-17T05:26:26.190Z,21.77
2022-08-17T05:29:02.464Z,21.68
2022-08-17T05:31:30.716Z,21.75
2022-08-17T05:33:57.536Z,21.76
2022-08-17T05:36:41.902Z,21.75
2022-08-17T05:39:15.805Z,21.74
2022-08-17T05:41:43.353Z,21.76
2022-08-17T05:44:10.733Z,21.79
2022-08-17T05:46:41.778Z,21.74
2022-08-17T05:49:09.557Z,21.68
2022-08-17T05:52:03.412Z,21.67
2022-08-17T05:54:53.880Z,21.71
2022-08-17T05:57:47.575Z,21.71
2022-08-17T06:00:30.267Z,21.62
2022-08-17T06:03:07.422Z,21.64
2022-08-17T06:05:59.798Z,21.62
2022-08-17T06:08:41.184Z,21.54
2022-08-17T06:11:13.641Z,21.62
2022-08-17T06:13:49.389Z,21.64
2022-08-17T06:16:33.466Z,21.63
2022-08-17T06:19:12.057Z,21.64
2022-08-17T06:21:43.098Z,21.77
2022-08-17T06:24:24.870Z,21.80
2022-08-17T06:26:53.095Z,21.84
2022-08-17T06:29:47.471Z,21.94
2022-08-17T06:32:14.633Z,21.74
2022-08-17T06:34:43.888Z,21.85
2022-08-17T06:37:28.725Z,21.96
2022-08-17T06:40:15.911Z,22.05
2022-08-17T06:43:14.739Z,22.12
2022-08-17T06:45:54.898Z,22.11
2022-08-17T06:48:33.111Z,22.18
2022-08-17T06:51:15.134Z,22.38
2022-08-17T06:53:49.992Z,22.39
2022-08-17T06:56:54.543Z,22.46
2022-08-17T06:59:30.458Z,22.49
2022-08-17T07:02:52.756Z,22.51
2022-08-17T07:05:32.660Z,22.57
2022-08-17T07:08:18.580Z,22.55
2022-08-17T07:10:50.831Z,22.51
2022-08-17T07:13:51.146Z,22.42
2022-08-17T07:16:35.145Z,22.36
2022-08-17T07:19:01.878Z,22.25
2022-08-17T07:21:31.685Z,22.26
2022-08-17T07:24:33.282Z,22.25
2022-08-17T07:27:20.683Z,22.19
2022-08-17T07:29:54.880Z,22.10
2022-08-17T07:32:26.457Z,22.01
2022-08-17T07:35:15.165Z,21.96
2022-08-17T07:37:46.043Z,22.00
2022-08-17T07:40:18.825Z,22.09
2022-08-17T07:43:02.281Z,21.94
2022-08-17T07:46:04.511Z,22.13
2022-08-17T07:48:36.066Z,22.24
2022-08-17T07:51:19.842Z,22.27
2022-08-17T07:53:46.729Z,22.40
2022-08-17T07:56:38.207Z,22.59
2022-08-17T07:59:23.757Z,22.57
2022-08-17T08:01:57.572Z,22.63
2022-08-17T08:04:59.014Z,22.67
2022-08-17T08:07:57.185Z,22.71
2022-08-17T08:10:45.402Z,22.80
2022-08-17T08:13:24.394Z,22.63
2022-08-17T08:15:54.770Z,22.83
2022-08-17T08:18:54.532Z,22.92
2022-08-17T08:21:38.974Z,23.06
2022-08-17T08:24:20.236Z,23.04
2022-08-17T08:27:18.112Z,23.15
2022-08-17T08:29:57.782Z,23.18
2022-08-17T08:32:48.628Z,23.18
2022-08-17T08:35:34.377Z,23.13
2022-08-17T08:38:07.626Z,23.05
2022-08-17T08:41:07.857Z,22.96
2022-08-17T08:44:06.461Z,22.88
2022-08-17T08:47:01.018Z,22.73
2022-08-17T08:50:04.791Z,22.75
2022-08-17T08:53:03.679Z,22.95
2022-08-17T08:55:51.907Z,23.05
2022-08-17T08:58:31.428Z,23.14
2022-08-17T09:01:27.658Z,23.20
2022-08-17T09:05:09.974Z,23.25
2022-08-17T09:07:38.981Z,23.31
2022-08-17T09:10:21.278Z,23.13
2022-08-17T09:12:51.313Z,22.95
2022-08-17T09:15:26.855Z,22.80
2022-08-17T09:19:00.613Z,22.67
2022-08-17T09:20:58.401Z,22.48
2022-08-17T09:23:42.107Z,22.25
2022-08-17T09:26:22.077Z,22.23
2022-08-17T09:29:00.217Z,21.99
2022-08-17T09:31:47.012Z,21.73
2022-08-17T09:34:20.225Z,21.69
2022-08-17T09:37:07.874Z,21.85
2022-08-17T09:39:43.506Z,21.92
2022-08-17T09:42:29.926Z,21.99
2022-08-17T09:45:28.962Z,22.14
2022-08-17T09:48:06.097Z,22.23
2022-08-17T09:51:03.527Z,22.14
2022-08-17T09:53:32.255Z,22.41
2022-08-17T09:56:31.242Z,22.61
2022-08-17T09:59:08.795Z,22.65
2022-08-17T10:01:39.882Z,22.81
2022-08-17T10:04:44.395Z,22.99
2022-08-17T10:07:17.804Z,22.97
2022-08-17T10:09:56.164Z,22.95
2022-08-17T10:12:31.040Z,23.02
2022-08-17T10:14:58.697Z,23.24
2022-08-17T10:18:31.833Z,23.76
2022-08-17T10:21:28.312Z,23.92
2022-08-17T10:25:21.174Z,24.27
2022-08-17T10:27:45.063Z,24.18
2022-08-17T10:30:17.206Z,24.06
2022-08-17T10:32:55.202Z,24.35
2022-08-17T10:35:34.349Z,24.18
2022-08-17T10:38:26.165Z,24.36
2022-08-17T10:41:20.559Z,24.64
2022-08-17T10:44:36.955Z,24.64
2022-08-17T10:47:15.058Z,24.33
2022-08-17T10:49:50.441Z,23.95
2022-08-17T10:52:20.030Z,23.89
2022-08-17T10:54:50.478Z,24.00
2022-08-17T10:57:31.798Z,24.14
2022-08-17T11:00:06.967Z,24.13
2022-08-17T11:02:50.162Z,23.96
2022-08-17T11:05:29.464Z,23.95
2022-08-17T11:08:17.383Z,23.84
2022-08-17T11:10:58.829Z,23.68
2022-08-17T11:13:44.944Z,23.47
2022-08-17T11:16:20.092Z,23.40
2022-08-17T11:19:12.432Z,23.27
2022-08-17T11:21:45.126Z,23.07
2022-08-17T11:24:16.745Z,22.97
2022-08-17T11:27:17.506Z,22.80
2022-08-17T11:30:02.114Z,22.72
2022-08-17T11:32:47.794Z,22.59
2022-08-17T11:35:30.340Z,22.57
2022-08-17T11:38:15.885Z,22.54
2022-08-17T11:41:18.443Z,22.42
2022-08-17T11:44:02.186Z,22.30
2022-08-17T11:47:18.597Z,22.20
2022-08-17T11:50:39.883Z,22.12
2022-08-17T11:53:07.055Z,22.05
2022-08-17T11:55:39.540Z,22.00
2022-08-17T11:58:37.555Z,22.12
2022-08-17T12:01:12.364Z,22.03
2022-08-17T12:03:55.346Z,22.08
2022-08-17T12:06:45.267Z,21.99
2022-08-17T12:09:25.544Z,21.97
2022-08-17T12:12:13.897Z,21.91
2022-08-17T12:17:55.960Z,21.63
2022-08-17T12:20:41.636Z,21.57
2022-08-17T12:23:18.843Z,21.76
2022-08-17T12:26:13.597Z,21.90
2022-08-17T12:28:45.926Z,21.99
2022-08-17T12:31:21.964Z,22.02
2022-08-17T12:33:51.701Z,22.04
2022-08-17T12:36:22.846Z,22.23
2022-08-17T12:38:59.525Z,22.32
2022-08-17T12:41:47.192Z,22.33
2022-08-17T12:44:18.280Z,22.42
2022-08-17T12:46:46.989Z,22.39
2022-08-17T12:49:16.957Z,22.40
2022-08-17T12:51:46.194Z,22.27
2022-08-17T12:54:32.089Z,22.13
2022-08-17T12:57:05.587Z,22.11
2022-08-17T12:59:33.260Z,22.01
2022-08-17T13:02:00.814Z,21.91
2022-08-17T13:04:29.525Z,21.93
2022-08-17T13:07:08.022Z,21.94
2022-08-17T13:09:36.108Z,21.94
2022-08-17T13:12:11.018Z,22.03
2022-08-17T13:14:38.362Z,22.03
2022-08-17T13:17:09.849Z,22.08
2022-08-17T13:19:48.421Z,22.13
2022-08-17T13:22:14.963Z,22.01
2022-08-17T13:24:53.201Z,22.14
2022-08-17T13:27:22.345Z,21.90
2022-08-17T13:29:53.864Z,21.96
2022-08-17T13:32:31.086Z,22.16
2022-08-17T13:35:15.249Z,22.17
2022-08-17T13:38:01.264Z,22.25
2022-08-17T13:40:42.080Z,22.37
2022-08-17T13:43:11.246Z,22.41
2022-08-17T13:45:50.781Z,22.38
2022-08-17T13:48:29.553Z,22.44
2022-08-17T13:50:59.647Z,22.56
2022-08-17T13:53:36.035Z,22.41
2022-08-17T13:56:37.353Z,22.45
2022-08-17T13:59:04.824Z,22.46
2022-08-17T14:01:35.995Z,22.42
2022-08-17T14:04:15.410Z,22.41
2022-08-17T14:06:59.288Z,22.43
2022-08-17T14:09:38.615Z,22.48
2022-08-17T14:12:10.653Z,22.45
2022-08-17T14:14:37.855Z,22.52
2022-08-17T14:17:05.113Z,22.61
2022-08-17T14:19:34.470Z,22.54
2022-08-17T14:22:01.229Z,22.56
2022-08-17T14:24:34.298Z,22.58
2022-08-17T14:27:03.398Z,22.43
2022-08-17T14:29:32.485Z,22.55
2022-08-17T14:32:04.500Z,22.51
2022-08-17T14:34:31.214Z,22.41
2022-08-17T14:36:57.817Z,22.65
2022-08-17T14:39:24.449Z,22.68
2022-08-17T14:41:50.986Z,22.74
2022-08-17T14:44:17.708Z,22.71
2022-08-17T14:46:44.980Z,22.75
2022-08-17T14:49:13.027Z,22.81
2022-08-17T14:51:43.974Z,22.75
2022-08-17T14:54:11.844Z,22.62
2022-08-17T14:57:22.749Z,22.79
2022-08-17T14:59:46.010Z,22.59
2022-08-17T15:02:13.269Z,22.61
2022-08-17T15:04:45.359Z,22.69
2022-08-17T15:07:12.761Z,22.75
2022-08-17T15:09:39.442Z,22.86
2022-08-17T15:12:09.046Z,22.90
2022-08-17T15:14:36.343Z,23.03
2022-08-17T15:17:03.806Z,22.92
2022-08-17T15:19:30.360Z,22.97
2022-08-17T15:21:57.532Z,22.91
2022-08-17T15:24:24.087Z,22.85
2022-08-17T15:26:51.457Z,22.80
2022-08-17T15:29:18.029Z,22.82
2022-08-17T15:31:44.645Z,22.86
2022-08-17T15:34:11.236Z,22.83
2022-08-17T15:36:38.050Z,22.82
2022-08-17T15:39:08.067Z,22.85
2022-08-17T15:41:34.621Z,22.88
2022-08-17T15:44:01.254Z,22.79
2022-08-17T15:46:28.325Z,22.98
2022-08-17T15:48:58.918Z,22.93
2022-08-17T15:51:30.506Z,22.92
2022-08-17T15:54:04.427Z,22.98
2022-08-17T15:56:44.250Z,22.84
2022-08-17T15:59:10.848Z,22.90
2022-08-17T16:03:01.430Z,22.76
2022-08-17T16:04:30.507Z,22.72
2022-08-17T16:06:57.931Z,22.71
2022-08-17T16:09:24.633Z,22.71
2022-08-17T16:11:52.801Z,22.60
2022-08-17T16:14:22.520Z,22.73
2022-08-17T16:16:50.638Z,22.68
2022-08-17T16:19:17.268Z,22.71
2022-08-17T16:21:44.137Z,22.80
2022-08-17T16:24:13.080Z,22.85
2022-08-17T16:26:40.110Z,22.93
2022-08-17T16:29:07.669Z,23.06
2022-08-17T16:31:36.027Z,23.00
2022-08-17T16:34:17.267Z,23.00
2022-08-17T16:36:53.560Z,22.97
2022-08-17T16:39:22.856Z,23.01
2022-08-17T16:41:50.309Z,22.95
2022-08-17T16:44:21.395Z,22.94
2022-08-17T16:46:48.973Z,22.77
2022-08-17T16:49:35.315Z,22.94
2022-08-17T16:52:06.830Z,22.95
2022-08-17T16:54:35.256Z,22.97
2022-08-17T16:57:03.986Z,23.22
2022-08-17T16:59:40.868Z,23.19
2022-08-17T17:02:11.209Z,23.10
2022-08-17T17:04:45.938Z,23.15
2022-08-17T17:07:15.311Z,23.07
2022-08-17T17:09:43.890Z,23.04
2022-08-17T17:12:18.301Z,22.92
2022-08-17T17:14:47.676Z,22.81
2022-08-17T17:17:30.323Z,22.81
2022-08-17T17:20:15.101Z,22.81
2022-08-17T17:23:05.446Z,22.92
2022-08-17T17:25:52.586Z,22.95
2022-08-17T17:28:56.214Z,22.88
2022-08-17T17:31:31.475Z,22.84
2022-08-17T17:34:04.451Z,22.76
2022-08-17T17:36:40.667Z,22.76
2022-08-17T17:39:14.140Z,22.62
2022-08-17T17:41:43.572Z,22.67
2022-08-17T17:44:18.000Z,22.62
2022-08-17T17:46:53.193Z,22.59
2022-08-17T17:49:20.303Z,22.69
2022-08-17T17:52:11.150Z,22.71
2022-08-17T17:54:47.927Z,22.71
2022-08-17T17:57:29.623Z,22.61
2022-08-17T18:00:14.775Z,22.55
2022-08-17T18:02:47.379Z,22.44
2022-08-17T18:05:37.250Z,22.39
2022-08-17T18:08:34.402Z,22.42
2022-08-17T18:11:24.048Z,22.40
2022-08-17T18:13:59.884Z,22.39
2022-08-17T18:16:32.059Z,22.37
2022-08-17T18:18:59.181Z,22.31
2022-08-17T18:21:40.158Z,22.33
2022-08-17T18:24:08.632Z,22.26
2022-08-17T18:26:50.149Z,22.25
2022-08-17T18:29:30.414Z,22.23
2022-08-17T18:32:18.529Z,22.24
2022-08-17T18:34:48.686Z,22.07
2022-08-17T18:37:33.121Z,22.25
2022-08-17T18:40:17.155Z,22.27
2022-08-17T18:43:05.498Z,22.22
2022-08-17T18:45:39.481Z,22.19
2022-08-17T18:48:19.310Z,22.20
2022-08-17T18:50:46.043Z,22.20
2022-08-17T18:53:34.040Z,22.19
2022-08-17T18:56:31.726Z,22.17
2022-08-17T18:59:41.567Z,22.16
2022-08-17T19:02:32.440Z,22.13
2022-08-17T19:05:10.952Z,22.16
2022-08-17T19:07:50.115Z,22.11
2022-08-17T19:10:28.892Z,22.03
2022-08-17T19:13:12.637Z,22.01
2022-08-17T19:16:12.300Z,22.02
2022-08-17T19:18:44.006Z,21.96
2022-08-17T19:21:20.679Z,21.96
2022-08-17T19:23:53.750Z,22.08
2022-08-17T19:26:54.709Z,22.02
2022-08-17T19:32:22.122Z,21.97
2022-08-17T19:34:49.318Z,21.82
2022-08-17T19:37:50.567Z,21.90
2022-08-17T19:40:53.759Z,21.81
2022-08-17T19:43:51.422Z,21.77
2022-08-17T19:46:48.663Z,21.70
2022-08-17T19:49:40.819Z,21.72
2022-08-17T19:52:29.132Z,21.73
2022-08-17T19:55:37.644Z,21.76
2022-08-17T19:58:21.680Z,21.65
2022-08-17T20:00:52.135Z,21.67
2022-08-17T20:03:31.436Z,21.65
2022-08-17T20:06:12.654Z,21.59
2022-08-17T20:08:53.994Z,21.54
2022-08-17T20:11:28.425Z,21.57
2022-08-17T20:14:12.032Z,21.29
2022-08-17T20:16:38.903Z,21.44
2022-08-17T20:19:27.664Z,21.45
2022-08-17T20:22:18.412Z,21.48
2022-08-17T20:24:54.221Z,21.45
2022-08-17T20:27:31.305Z,21.47
2022-08-17T20:30:01.604Z,21.47
2022-08-17T20:32:31.460Z,21.44
2022-08-17T20:35:25.920Z,21.47
2022-08-17T20:37:59.233Z,21.38
2022-08-17T20:40:32.797Z,21.46
2022-08-17T20:43:34.363Z,21.50
2022-08-17T20:46:18.801Z,21.48
2022-08-17T20:48:50.040Z,21.44
2022-08-17T20:51:22.612Z,21.46
2022-08-17T20:53:55.141Z,21.42
2022-08-17T20:56:43.548Z,21.37
2022-08-17T20:59:31.654Z,21.17
2022-08-17T21:02:18.590Z,21.22
2022-08-17T21:04:52.709Z,21.21
2022-08-17T21:07:53.100Z,21.20
2022-08-17T21:10:25.935Z,21.23
2022-08-17T21:13:21.788Z,21.06
2022-08-17T21:16:41.356Z,21.31
2022-08-17T21:19:25.947Z,21.17
2022-08-17T21:22:28.620Z,21.22
2022-08-17T21:25:16.185Z,21.25
2022-08-17T21:28:10.149Z,21.14
2022-08-17T21:30:39.125Z,21.17
2022-08-17T21:33:16.675Z,21.07
2022-08-17T21:35:49.309Z,20.98
2022-08-17T21:38:19.519Z,20.89
2022-08-17T21:40:50.061Z,20.91
2022-08-17T21:43:22.941Z,20.89
2022-08-17T21:46:02.204Z,20.84
2022-08-17T21:48:32.212Z,20.84
2022-08-17T21:51:06.657Z,20.83
2022-08-17T21:54:06.171Z,20.84
2022-08-17T21:56:38.705Z,20.82
2022-08-17T21:59:16.114Z,20.82
2022-08-17T22:01:43.247Z,20.71
2022-08-17T22:04:11.293Z,20.72
2022-08-17T22:06:55.841Z,20.71
2022-08-17T22:09:34.568Z,20.76
2022-08-17T22:12:04.750Z,20.76
2022-08-17T22:14:52.466Z,20.62
2022-08-17T22:17:27.119Z,20.59
2022-08-17T22:19:58.390Z,20.55
2022-08-17T22:22:27.704Z,20.57
2022-08-17T22:25:02.411Z,20.50
2022-08-17T22:27:59.402Z,20.55
2022-08-17T22:30:34.470Z,20.56
2022-08-17T22:33:33.015Z,20.58
2022-08-17T22:36:13.161Z,20.61
2022-08-17T22:38:41.488Z,20.59
2022-08-17T22:41:41.112Z,20.62
2022-08-17T22:44:31.884Z,20.70
2022-08-17T22:47:01.355Z,20.70
2022-08-17T22:49:53.359Z,20.62
2022-08-17T22:52:57.377Z,20.59
2022-08-17T22:55:43.624Z,20.61
2022-08-17T22:58:40.775Z,20.60
2022-08-17T23:01:32.588Z,20.63
2022-08-17T23:04:03.058Z,20.60
2022-08-17T23:06:33.884Z,20.55
2022-08-17T23:09:03.579Z,20.45
2022-08-17T23:11:49.290Z,20.53
2022-08-17T23:14:19.244Z,20.48
2022-08-17T23:16:46.940Z,20.48
2022-08-17T23:19:16.049Z,20.47
2022-08-17T23:21:44.869Z,20.37
2022-08-17T23:24:17.093Z,20.39
2022-08-17T23:26:43.633Z,20.29
2022-08-17T23:29:10.192Z,20.29
2022-08-17T23:31:38.821Z,20.28
2022-08-17T23:34:15.093Z,20.22
2022-08-17T23:36:42.220Z,20.23
2022-08-17T23:39:08.743Z,20.16
2022-08-17T23:41:39.810Z,20.20
2022-08-17T23:44:07.176Z,20.16
2022-08-17T23:46:34.528Z,20.17
2022-08-17T23:49:01.239Z,20.10
2022-08-17T23:51:31.834Z,20.08
2022-08-17T23:54:08.207Z,20.08
2022-08-17T23:56:43.824Z,20.01
2022-08-17T23:59:11.283Z,19.95
